sensor_id;sensor_type;location;lat;lon;timestamp;pressure;altitude;pressure_sealevel;temperature;humidity
64025;BME280;50266;57.446;26.936;2023-02-11T00:00:55;99244.12;;;-3.3;100.0
64025;BME280;50266;57.446;26.936;2023-02-11T00:01:55;99235.88;;;-3.29;100.0
64025;BME280;50266;57.446;26.936;2023-02-11T00:02:55;99233.83;;;-3.29;100.0
64025;BME280;50266;57.446;26.936;2023-02-11T00:03:55;99227.9;;;-3.31;100.0
64025;BME280;50266;57.446;26.936;2023-02-11T00:04:55;99227.71;;;-3.3;100.0
64025;BME280;50266;57.446;26.936;2023-02-11T00:05:58;99224.72;;;-3.24;100.0
64025;BME280;50266;57.446;26.936;2023-02-11T00:06:55;99225.23;;;-3.27;100.0
64025;BME280;50266;57.446;26.936;2023-02-11T00:07:55;99224.28;;;-3.25;100.0
64025;BME280;50266;57.446;26.936;2023-02-11T00:08:55;99220.33;;;-3.28;100.0
64025;BME280;50266;57.446;26.936;2023-02-11T00:09:55;99220.87;;;-3.2;100.0
64025;BME280;50266;57.446;26.936;2023-02-11T00:10:55;99224.69;;;-3.23;100.0
64025;BME280;50266;57.446;26.936;2023-02-11T00:11:55;99223.05;;;-3.26;100.0
64025;BME280;50266;57.446;26.936;2023-02-11T00:12:55;99223.52;;;-3.24;100.0
64025;BME280;50266;57.446;26.936;2023-02-11T00:13:57;99223.95;;;-3.24;100.0
64025;BME280;50266;57.446;26.936;2023-02-11T00:14:55;99221.27;;;-3.26;100.0
64025;BME280;50266;57.446;26.936;2023-02-11T00:15:55;99219.94;;;-3.31;100.0
64025;BME280;50266;57.446;26.936;2023-02-11T00:16:55;99215.93;;;-3.27;100.0
64025;BME280;50266;57.446;26.936;2023-02-11T00:17:55;99212.62;;;-3.32;100.0
64025;BME280;50266;57.446;26.936;2023-02-11T00:18:55;99209.33;;;-3.31;100.0
64025;BME280;50266;57.446;26.936;2023-02-11T00:19:55;99204.55;;;-3.32;100.0
64025;BME280;50266;57.446;26.936;2023-02-11T00:20:55;99205.48;;;-3.27;100.0
64025;BME280;50266;57.446;26.936;2023-02-11T00:21:57;99201.91;;;-3.31;100.0
64025;BME280;50266;57.446;26.936;2023-02-11T00:22:55;99204.83;;;-3.27;100.0
64025;BME280;50266;57.446;26.936;2023-02-11T00:23:55;99199.66;;;-3.29;100.0
64025;BME280;50266;57.446;26.936;2023-02-11T00:24:55;99198.22;;;-3.32;100.0
64025;BME280;50266;57.446;26.936;2023-02-11T00:25:55;99193.31;;;-3.28;100.0
64025;BME280;50266;57.446;26.936;2023-02-11T00:26:55;99192.52;;;-3.21;100.0
64025;BME280;50266;57.446;26.936;2023-02-11T00:27:55;99191.08;;;-3.19;100.0
64025;BME280;50266;57.446;26.936;2023-02-11T00:28:55;99186.34;;;-3.21;100.0
64025;BME280;50266;57.446;26.936;2023-02-11T00:29:55;99186.48;;;-3.28;100.0
64025;BME280;50266;57.446;26.936;2023-02-11T00:30:55;99186.83;;;-3.25;100.0
64025;BME280;50266;57.446;26.936;2023-02-11T00:31:55;99180.3;;;-3.19;100.0
64025;BME280;50266;57.446;26.936;2023-02-11T00:32:55;99175.33;;;-3.17;100.0
64025;BME280;50266;57.446;26.936;2023-02-11T00:33:55;99170.47;;;-3.21;100.0
64025;BME280;50266;57.446;26.936;2023-02-11T00:34:55;99167.73;;;-3.19;100.0
64025;BME280;50266;57.446;26.936;2023-02-11T00:35:55;99172.28;;;-3.15;100.0
64025;BME280;50266;57.446;26.936;2023-02-11T00:36:55;99162.9;;;-3.11;100.0
64025;BME280;50266;57.446;26.936;2023-02-11T00:37:55;99158.91;;;-3.16;100.0
64025;BME280;50266;57.446;26.936;2023-02-11T00:38:56;99161.64;;;-3.09;100.0
64025;BME280;50266;57.446;26.936;2023-02-11T00:39:55;99155.81;;;-3.07;100.0
64025;BME280;50266;57.446;26.936;2023-02-11T00:40:55;99153.59;;;-3.12;100.0
64025;BME280;50266;57.446;26.936;2023-02-11T00:41:56;99149.95;;;-3.09;100.0
64025;BME280;50266;57.446;26.936;2023-02-11T00:42:55;99143.41;;;-3.06;100.0
64025;BME280;50266;57.446;26.936;2023-02-11T00:43:55;99140.83;;;-3.04;100.0
64025;BME280;50266;57.446;26.936;2023-02-11T00:44:55;99141.58;;;-3.01;100.0
64025;BME280;50266;57.446;26.936;2023-02-11T00:45:55;99136.23;;;-3.08;100.0
64025;BME280;50266;57.446;26.936;2023-02-11T00:46:55;99129.75;;;-3.06;100.0
64025;BME280;50266;57.446;26.936;2023-02-11T00:47:55;99124.23;;;-3.04;100.0
64025;BME280;50266;57.446;26.936;2023-02-11T00:48:55;99126.48;;;-3.05;100.0
64025;BME280;50266;57.446;26.936;2023-02-11T00:49:55;99120.84;;;-3.04;100.0
64025;BME280;50266;57.446;26.936;2023-02-11T00:50:55;99114.32;;;-3.06;100.0
64025;BME280;50266;57.446;26.936;2023-02-11T00:51:55;99113.8;;;-3.04;100.0
64025;BME280;50266;57.446;26.936;2023-02-11T00:52:55;99112.03;;;-3.06;100.0
64025;BME280;50266;57.446;26.936;2023-02-11T00:53:56;99107.71;;;-3.03;100.0
64025;BME280;50266;57.446;26.936;2023-02-11T00:54:56;99103.92;;;-3.03;100.0
64025;BME280;50266;57.446;26.936;2023-02-11T00:55:56;99102.56;;;-3.0;100.0
64025;BME280;50266;57.446;26.936;2023-02-11T00:56:56;99097.68;;;-2.99;100.0
64025;BME280;50266;57.446;26.936;2023-02-11T00:57:56;99098.91;;;-3.02;100.0
64025;BME280;50266;57.446;26.936;2023-02-11T00:58:56;99093.3;;;-3.0;100.0
64025;BME280;50266;57.446;26.936;2023-02-11T00:59:56;99090.0;;;-3.0;100.0
64025;BME280;50266;57.446;26.936;2023-02-11T01:00:56;99087.63;;;-3.01;100.0
64025;BME280;50266;57.446;26.936;2023-02-11T01:01:56;99090.92;;;-2.97;100.0
64025;BME280;50266;57.446;26.936;2023-02-11T01:02:56;99092.7;;;-2.97;100.0
64025;BME280;50266;57.446;26.936;2023-02-11T01:03:56;99086.05;;;-2.97;100.0
64025;BME280;50266;57.446;26.936;2023-02-11T01:04:56;99082.47;;;-2.94;100.0
64025;BME280;50266;57.446;26.936;2023-02-11T01:05:56;99082.39;;;-2.96;100.0
64025;BME280;50266;57.446;26.936;2023-02-11T01:06:56;99077.37;;;-2.99;100.0
64025;BME280;50266;57.446;26.936;2023-02-11T01:07:56;99075.42;;;-2.96;100.0
64025;BME280;50266;57.446;26.936;2023-02-11T01:08:56;99070.03;;;-2.98;100.0
64025;BME280;50266;57.446;26.936;2023-02-11T01:09:56;99070.11;;;-2.99;100.0
64025;BME280;50266;57.446;26.936;2023-02-11T01:10:57;99067.8;;;-2.97;100.0
64025;BME280;50266;57.446;26.936;2023-02-11T01:11:56;99067.28;;;-2.92;100.0
64025;BME280;50266;57.446;26.936;2023-02-11T01:12:56;99064.26;;;-2.96;100.0
64025;BME280;50266;57.446;26.936;2023-02-11T01:13:56;99061.21;;;-2.98;100.0
64025;BME280;50266;57.446;26.936;2023-02-11T01:14:56;99057.45;;;-2.97;100.0
64025;BME280;50266;57.446;26.936;2023-02-11T01:15:56;99061.19;;;-2.97;100.0
64025;BME280;50266;57.446;26.936;2023-02-11T01:16:56;99056.38;;;-2.94;100.0
64025;BME280;50266;57.446;26.936;2023-02-11T01:17:56;99051.52;;;-2.96;100.0
64025;BME280;50266;57.446;26.936;2023-02-11T01:18:56;99048.02;;;-2.97;100.0
64025;BME280;50266;57.446;26.936;2023-02-11T01:19:56;99042.42;;;-2.96;100.0
64025;BME280;50266;57.446;26.936;2023-02-11T01:20:56;99042.77;;;-2.96;100.0
64025;BME280;50266;57.446;26.936;2023-02-11T01:21:56;99039.08;;;-3.02;100.0
64025;BME280;50266;57.446;26.936;2023-02-11T01:22:56;99032.73;;;-3.04;100.0
64025;BME280;50266;57.446;26.936;2023-02-11T01:23:56;99028.53;;;-3.03;100.0
64025;BME280;50266;57.446;26.936;2023-02-11T01:24:56;99017.15;;;-3.02;100.0
64025;BME280;50266;57.446;26.936;2023-02-11T01:25:56;99021.09;;;-2.99;100.0
64025;BME280;50266;57.446;26.936;2023-02-11T01:26:56;99020.56;;;-3.02;100.0
64025;BME280;50266;57.446;26.936;2023-02-11T01:27:56;99015.19;;;-2.99;100.0
64025;BME280;50266;57.446;26.936;2023-02-11T01:28:56;99017.7;;;-3.0;100.0
64025;BME280;50266;57.446;26.936;2023-02-11T01:29:56;99005.72;;;-2.99;100.0
64025;BME280;50266;57.446;26.936;2023-02-11T01:30:56;99009.04;;;-3.0;100.0
64025;BME280;50266;57.446;26.936;2023-02-11T01:31:56;99003.84;;;-2.97;100.0
64025;BME280;50266;57.446;26.936;2023-02-11T01:32:56;98998.98;;;-2.95;100.0
64025;BME280;50266;57.446;26.936;2023-02-11T01:33:56;99001.02;;;-2.91;100.0
64025;BME280;50266;57.446;26.936;2023-02-11T01:34:56;98998.04;;;-2.94;100.0
64025;BME280;50266;57.446;26.936;2023-02-11T01:35:59;99000.73;;;-2.9;100.0
64025;BME280;50266;57.446;26.936;2023-02-11T01:36:59;98994.3;;;-2.91;100.0
64025;BME280;50266;57.446;26.936;2023-02-11T01:37:56;98987.16;;;-2.92;100.0
64025;BME280;50266;57.446;26.936;2023-02-11T01:38:56;98989.22;;;-2.92;100.0
64025;BME280;50266;57.446;26.936;2023-02-11T01:39:56;98983.94;;;-2.93;100.0
64025;BME280;50266;57.446;26.936;2023-02-11T01:41:00;98985.75;;;-2.91;100.0
64025;BME280;50266;57.446;26.936;2023-02-11T01:41:57;98978.56;;;-2.86;100.0
64025;BME280;50266;57.446;26.936;2023-02-11T01:42:58;98982.38;;;-2.87;100.0
64025;BME280;50266;57.446;26.936;2023-02-11T01:43:58;98976.72;;;-2.86;100.0
64025;BME280;50266;57.446;26.936;2023-02-11T01:44:59;98975.95;;;-2.88;100.0
64025;BME280;50266;57.446;26.936;2023-02-11T01:46:00;98967.36;;;-2.87;100.0
64025;BME280;50266;57.446;26.936;2023-02-11T01:46:59;98961.92;;;-2.83;100.0
64025;BME280;50266;57.446;26.936;2023-02-11T01:47:59;98965.91;;;-2.82;100.0
64025;BME280;50266;57.446;26.936;2023-02-11T01:49:02;98954.86;;;-2.85;100.0
64025;BME280;50266;57.446;26.936;2023-02-11T01:50:00;98959.25;;;-2.82;100.0
64025;BME280;50266;57.446;26.936;2023-02-11T01:51:02;98954.62;;;-2.84;100.0
64025;BME280;50266;57.446;26.936;2023-02-11T01:52:01;98952.83;;;-2.86;100.0
64025;BME280;50266;57.446;26.936;2023-02-11T01:53:00;98947.23;;;-2.83;100.0
64025;BME280;50266;57.446;26.936;2023-02-11T01:54:00;98941.5;;;-2.78;100.0
64025;BME280;50266;57.446;26.936;2023-02-11T01:55:04;98943.06;;;-2.77;100.0
64025;BME280;50266;57.446;26.936;2023-02-11T01:56:02;98935.69;;;-2.74;100.0
64025;BME280;50266;57.446;26.936;2023-02-11T01:57:02;98932.02;;;-2.77;100.0
64025;BME280;50266;57.446;26.936;2023-02-11T01:58:02;98916.79;;;-2.82;100.0
64025;BME280;50266;57.446;26.936;2023-02-11T01:59:03;98924.77;;;-2.78;100.0
64025;BME280;50266;57.446;26.936;2023-02-11T02:01:03;98918.53;;;-2.83;100.0
64025;BME280;50266;57.446;26.936;2023-02-11T02:02:05;98903.36;;;-2.83;100.0
64025;BME280;50266;57.446;26.936;2023-02-11T02:03:11;98905.69;;;-2.85;100.0
64025;BME280;50266;57.446;26.936;2023-02-11T02:04:03;98903.75;;;-2.86;100.0
64025;BME280;50266;57.446;26.936;2023-02-11T02:05:07;98896.67;;;-2.84;100.0
64025;BME280;50266;57.446;26.936;2023-02-11T02:06:15;98897.88;;;-2.77;100.0
64025;BME280;50266;57.446;26.936;2023-02-11T02:07:10;98891.02;;;-2.81;100.0
64025;BME280;50266;57.446;26.936;2023-02-11T02:08:13;98883.65;;;-2.83;100.0
64025;BME280;50266;57.446;26.936;2023-02-11T02:09:17;98875.84;;;-2.85;100.0
64025;BME280;50266;57.446;26.936;2023-02-11T02:10:16;98873.78;;;-2.83;100.0
64025;BME280;50266;57.446;26.936;2023-02-11T02:11:15;98868.28;;;-2.81;100.0
64025;BME280;50266;57.446;26.936;2023-02-11T02:12:15;98862.62;;;-2.83;100.0
64025;BME280;50266;57.446;26.936;2023-02-11T02:13:15;98856.8;;;-2.84;100.0
64025;BME280;50266;57.446;26.936;2023-02-11T02:14:15;98850.04;;;-2.82;100.0
64025;BME280;50266;57.446;26.936;2023-02-11T02:15:28;98844.78;;;-2.82;100.0
64025;BME280;50266;57.446;26.936;2023-02-11T02:16:20;98841.2;;;-2.82;100.0
64025;BME280;50266;57.446;26.936;2023-02-11T02:17:28;98828.11;;;-2.83;100.0
64025;BME280;50266;57.446;26.936;2023-02-11T02:19:46;98818.3;;;-2.84;100.0
64025;BME280;50266;57.446;26.936;2023-02-11T02:22:46;98808.53;;;-2.82;100.0
64025;BME280;50266;57.446;26.936;2023-02-11T02:24:54;98796.55;;;-2.83;100.0
64025;BME280;50266;57.446;26.936;2023-02-11T02:25:51;98792.17;;;-2.84;100.0
64025;BME280;50266;57.446;26.936;2023-02-11T02:30:10;98767.95;;;-2.88;100.0
64025;BME280;50266;57.446;26.936;2023-02-11T02:33:23;98754.33;;;-2.89;100.0
64025;BME280;50266;57.446;26.936;2023-02-11T02:34:12;98753.27;;;-2.91;100.0
64025;BME280;50266;57.446;26.936;2023-02-11T02:35:22;98746.84;;;-2.94;100.0
64025;BME280;50266;57.446;26.936;2023-02-11T02:36:27;98741.58;;;-2.92;100.0
64025;BME280;50266;57.446;26.936;2023-02-11T02:37:25;98738.05;;;-2.91;100.0
64025;BME280;50266;57.446;26.936;2023-02-11T02:38:37;98722.85;;;-2.89;100.0
64025;BME280;50266;57.446;26.936;2023-02-11T02:39:22;98711.88;;;-2.9;100.0
64025;BME280;50266;57.446;26.936;2023-02-11T02:41:27;98700.91;;;-2.89;100.0
64025;BME280;50266;57.446;26.936;2023-02-11T02:42:25;98704.23;;;-2.9;100.0
64025;BME280;50266;57.446;26.936;2023-02-11T02:43:26;98696.2;;;-2.89;100.0
64025;BME280;50266;57.446;26.936;2023-02-11T02:44:26;98687.17;;;-2.9;100.0
64025;BME280;50266;57.446;26.936;2023-02-11T02:45:26;98686.56;;;-2.9;100.0
64025;BME280;50266;57.446;26.936;2023-02-11T02:46:27;98683.8;;;-2.92;100.0
64025;BME280;50266;57.446;26.936;2023-02-11T02:47:26;98679.72;;;-2.91;100.0
64025;BME280;50266;57.446;26.936;2023-02-11T02:48:30;98669.12;;;-2.92;100.0
64025;BME280;50266;57.446;26.936;2023-02-11T02:49:26;98656.6;;;-2.94;100.0
64025;BME280;50266;57.446;26.936;2023-02-11T02:50:30;98658.55;;;-2.92;100.0
64025;BME280;50266;57.446;26.936;2023-02-11T02:52:34;98644.0;;;-2.9;100.0
64025;BME280;50266;57.446;26.936;2023-02-11T02:53:39;98646.61;;;-2.87;100.0
64025;BME280;50266;57.446;26.936;2023-02-11T02:56:03;98636.96;;;-2.85;100.0
64025;BME280;50266;57.446;26.936;2023-02-11T02:56:56;98631.22;;;-2.92;100.0
64025;BME280;50266;57.446;26.936;2023-02-11T02:58:58;98622.73;;;-2.88;100.0
64025;BME280;50266;57.446;26.936;2023-02-11T03:04:13;98605.64;;;-2.85;100.0
64025;BME280;50266;57.446;26.936;2023-02-11T03:07:18;98591.12;;;-2.8;100.0
64025;BME280;50266;57.446;26.936;2023-02-11T03:08:17;98594.73;;;-2.8;100.0
64025;BME280;50266;57.446;26.936;2023-02-11T03:09:15;98582.18;;;-2.8;100.0
64025;BME280;50266;57.446;26.936;2023-02-11T03:10:30;98573.48;;;-2.79;100.0
64025;BME280;50266;57.446;26.936;2023-02-11T03:11:18;98573.67;;;-2.76;100.0
64025;BME280;50266;57.446;26.936;2023-02-11T03:12:18;98570.87;;;-2.74;100.0
64025;BME280;50266;57.446;26.936;2023-02-11T03:13:19;98563.25;;;-2.75;100.0
64025;BME280;50266;57.446;26.936;2023-02-11T03:14:19;98559.55;;;-2.73;100.0
64025;BME280;50266;57.446;26.936;2023-02-11T03:15:18;98551.2;;;-2.72;100.0
64025;BME280;50266;57.446;26.936;2023-02-11T03:16:19;98542.77;;;-2.69;100.0
64025;BME280;50266;57.446;26.936;2023-02-11T03:17:18;98544.66;;;-2.68;100.0
64025;BME280;50266;57.446;26.936;2023-02-11T03:18:21;98551.59;;;-2.66;100.0
64025;BME280;50266;57.446;26.936;2023-02-11T03:19:21;98542.14;;;-2.63;100.0
64025;BME280;50266;57.446;26.936;2023-02-11T03:20:20;98535.41;;;-2.65;100.0
64025;BME280;50266;57.446;26.936;2023-02-11T03:21:20;98532.77;;;-2.64;100.0
64025;BME280;50266;57.446;26.936;2023-02-11T03:22:21;98524.78;;;-2.63;100.0
64025;BME280;50266;57.446;26.936;2023-02-11T03:23:40;98515.76;;;-2.62;100.0
64025;BME280;50266;57.446;26.936;2023-02-11T03:25:27;98513.03;;;-2.59;100.0
64025;BME280;50266;57.446;26.936;2023-02-11T03:26:37;98509.81;;;-2.55;100.0
64025;BME280;50266;57.446;26.936;2023-02-11T03:27:32;98508.48;;;-2.52;100.0
64025;BME280;50266;57.446;26.936;2023-02-11T03:28:37;98501.05;;;-2.49;100.0
64025;BME280;50266;57.446;26.936;2023-02-11T03:29:38;98496.19;;;-2.46;100.0
64025;BME280;50266;57.446;26.936;2023-02-11T03:30:33;98488.02;;;-2.43;100.0
64025;BME280;50266;57.446;26.936;2023-02-11T03:32:38;98484.22;;;-2.43;100.0
64025;BME280;50266;57.446;26.936;2023-02-11T03:33:47;98481.09;;;-2.43;100.0
64025;BME280;50266;57.446;26.936;2023-02-11T03:35:38;98479.35;;;-2.45;100.0
64025;BME280;50266;57.446;26.936;2023-02-11T03:36:39;98461.83;;;-2.44;100.0
64025;BME280;50266;57.446;26.936;2023-02-11T03:38:43;98451.69;;;-2.36;100.0
64025;BME280;50266;57.446;26.936;2023-02-11T03:39:46;98448.49;;;-2.37;100.0
64025;BME280;50266;57.446;26.936;2023-02-11T03:40:45;98442.27;;;-2.37;100.0
64025;BME280;50266;57.446;26.936;2023-02-11T03:41:45;98443.47;;;-2.32;100.0
64025;BME280;50266;57.446;26.936;2023-02-11T03:42:47;98439.0;;;-2.28;100.0
64025;BME280;50266;57.446;26.936;2023-02-11T03:43:49;98437.59;;;-2.29;100.0
64025;BME280;50266;57.446;26.936;2023-02-11T03:44:48;98432.83;;;-2.3;100.0
64025;BME280;50266;57.446;26.936;2023-02-11T03:45:46;98425.03;;;-2.35;100.0
64025;BME280;50266;57.446;26.936;2023-02-11T03:46:47;98428.45;;;-2.32;100.0
64025;BME280;50266;57.446;26.936;2023-02-11T03:47:47;98416.56;;;-2.33;100.0
64025;BME280;50266;57.446;26.936;2023-02-11T03:48:48;98415.36;;;-2.27;100.0
64025;BME280;50266;57.446;26.936;2023-02-11T03:49:46;98404.49;;;-2.25;100.0
64025;BME280;50266;57.446;26.936;2023-02-11T03:50:47;98398.02;;;-2.27;100.0
64025;BME280;50266;57.446;26.936;2023-02-11T03:51:47;98391.56;;;-2.29;100.0
64025;BME280;50266;57.446;26.936;2023-02-11T03:52:46;98394.16;;;-2.27;100.0
64025;BME280;50266;57.446;26.936;2023-02-11T03:53:46;98392.88;;;-2.19;100.0
64025;BME280;50266;57.446;26.936;2023-02-11T03:54:47;98396.89;;;-2.17;100.0
64025;BME280;50266;57.446;26.936;2023-02-11T03:55:46;98379.78;;;-2.18;100.0
64025;BME280;50266;57.446;26.936;2023-02-11T03:56:54;98388.25;;;-2.17;100.0
64025;BME280;50266;57.446;26.936;2023-02-11T03:57:50;98371.12;;;-2.15;100.0
64025;BME280;50266;57.446;26.936;2023-02-11T03:58:50;98372.91;;;-2.09;100.0
64025;BME280;50266;57.446;26.936;2023-02-11T03:59:54;98369.0;;;-2.1;100.0
64025;BME280;50266;57.446;26.936;2023-02-11T04:00:51;98369.8;;;-2.08;100.0
64025;BME280;50266;57.446;26.936;2023-02-11T04:01:51;98372.7;;;-2.03;100.0
64025;BME280;50266;57.446;26.936;2023-02-11T04:02:51;98362.89;;;-2.05;100.0
64025;BME280;50266;57.446;26.936;2023-02-11T04:03:51;98353.45;;;-2.05;100.0
64025;BME280;50266;57.446;26.936;2023-02-11T04:04:51;98350.02;;;-2.03;100.0
64025;BME280;50266;57.446;26.936;2023-02-11T04:05:51;98345.09;;;-2.05;100.0
64025;BME280;50266;57.446;26.936;2023-02-11T04:06:51;98343.86;;;-2.05;100.0
64025;BME280;50266;57.446;26.936;2023-02-11T04:07:51;98339.21;;;-2.01;100.0
64025;BME280;50266;57.446;26.936;2023-02-11T04:08:51;98328.89;;;-2.02;100.0
64025;BME280;50266;57.446;26.936;2023-02-11T04:09:51;98331.29;;;-2.02;100.0
64025;BME280;50266;57.446;26.936;2023-02-11T04:10:51;98332.98;;;-2.02;100.0
64025;BME280;50266;57.446;26.936;2023-02-11T04:11:51;98329.72;;;-1.99;100.0
64025;BME280;50266;57.446;26.936;2023-02-11T04:12:51;98327.0;;;-1.97;100.0
64025;BME280;50266;57.446;26.936;2023-02-11T04:13:51;98330.66;;;-1.93;100.0
64025;BME280;50266;57.446;26.936;2023-02-11T04:14:51;98324.19;;;-1.91;100.0
64025;BME280;50266;57.446;26.936;2023-02-11T04:15:51;98317.77;;;-1.89;100.0
64025;BME280;50266;57.446;26.936;2023-02-11T04:16:51;98310.58;;;-1.88;100.0
64025;BME280;50266;57.446;26.936;2023-02-11T04:17:51;98310.88;;;-1.87;100.0
64025;BME280;50266;57.446;26.936;2023-02-11T04:18:51;98302.84;;;-1.87;100.0
64025;BME280;50266;57.446;26.936;2023-02-11T04:19:51;98304.34;;;-1.87;100.0
64025;BME280;50266;57.446;26.936;2023-02-11T04:20:51;98302.59;;;-1.86;100.0
64025;BME280;50266;57.446;26.936;2023-02-11T04:21:51;98292.5;;;-1.86;100.0
64025;BME280;50266;57.446;26.936;2023-02-11T04:22:51;98279.4;;;-1.88;100.0
64025;BME280;50266;57.446;26.936;2023-02-11T04:23:51;98271.64;;;-1.9;100.0
64025;BME280;50266;57.446;26.936;2023-02-11T04:24:51;98264.95;;;-1.84;100.0
64025;BME280;50266;57.446;26.936;2023-02-11T04:25:51;98272.97;;;-1.82;100.0
64025;BME280;50266;57.446;26.936;2023-02-11T04:26:51;98275.06;;;-1.8;100.0
64025;BME280;50266;57.446;26.936;2023-02-11T04:27:51;98263.59;;;-1.81;100.0
64025;BME280;50266;57.446;26.936;2023-02-11T04:28:51;98263.39;;;-1.79;100.0
64025;BME280;50266;57.446;26.936;2023-02-11T04:29:51;98264.23;;;-1.79;100.0
64025;BME280;50266;57.446;26.936;2023-02-11T04:30:51;98261.75;;;-1.8;100.0
64025;BME280;50266;57.446;26.936;2023-02-11T04:31:51;98249.19;;;-1.8;100.0
64025;BME280;50266;57.446;26.936;2023-02-11T04:32:51;98250.67;;;-1.78;100.0
64025;BME280;50266;57.446;26.936;2023-02-11T04:33:52;98246.25;;;-1.77;100.0
64025;BME280;50266;57.446;26.936;2023-02-11T04:34:52;98236.07;;;-1.75;100.0
64025;BME280;50266;57.446;26.936;2023-02-11T04:35:52;98227.78;;;-1.72;100.0
64025;BME280;50266;57.446;26.936;2023-02-11T04:36:52;98231.69;;;-1.68;100.0
64025;BME280;50266;57.446;26.936;2023-02-11T04:37:52;98226.91;;;-1.67;100.0
64025;BME280;50266;57.446;26.936;2023-02-11T04:38:52;98215.11;;;-1.7;100.0
64025;BME280;50266;57.446;26.936;2023-02-11T04:39:52;98209.04;;;-1.66;100.0
64025;BME280;50266;57.446;26.936;2023-02-11T04:40:52;98204.02;;;-1.66;100.0
64025;BME280;50266;57.446;26.936;2023-02-11T04:41:52;98205.23;;;-1.65;100.0
64025;BME280;50266;57.446;26.936;2023-02-11T04:42:52;98197.19;;;-1.65;100.0
64025;BME280;50266;57.446;26.936;2023-02-11T04:43:52;98192.31;;;-1.65;100.0
64025;BME280;50266;57.446;26.936;2023-02-11T04:44:52;98194.66;;;-1.62;100.0
64025;BME280;50266;57.446;26.936;2023-02-11T04:45:55;98193.08;;;-1.61;100.0
64025;BME280;50266;57.446;26.936;2023-02-11T04:46:52;98187.87;;;-1.61;100.0
64025;BME280;50266;57.446;26.936;2023-02-11T04:47:52;98180.03;;;-1.59;100.0
64025;BME280;50266;57.446;26.936;2023-02-11T04:48:52;98171.86;;;-1.58;100.0
64025;BME280;50266;57.446;26.936;2023-02-11T04:49:52;98169.76;;;-1.55;100.0
64025;BME280;50266;57.446;26.936;2023-02-11T04:50:52;98173.73;;;-1.54;100.0
64025;BME280;50266;57.446;26.936;2023-02-11T04:51:52;98160.09;;;-1.54;100.0
64025;BME280;50266;57.446;26.936;2023-02-11T04:52:52;98154.83;;;-1.52;100.0
64025;BME280;50266;57.446;26.936;2023-02-11T04:53:52;98156.48;;;-1.53;100.0
64025;BME280;50266;57.446;26.936;2023-02-11T04:54:52;98129.81;;;-1.54;100.0
64025;BME280;50266;57.446;26.936;2023-02-11T04:55:52;98125.36;;;-1.51;100.0
64025;BME280;50266;57.446;26.936;2023-02-11T04:56:52;98135.2;;;-1.5;100.0
64025;BME280;50266;57.446;26.936;2023-02-11T04:57:52;98124.84;;;-1.49;100.0
64025;BME280;50266;57.446;26.936;2023-02-11T04:58:52;98127.19;;;-1.48;100.0
64025;BME280;50266;57.446;26.936;2023-02-11T04:59:52;98120.84;;;-1.48;100.0
64025;BME280;50266;57.446;26.936;2023-02-11T05:00:52;98120.69;;;-1.45;100.0
64025;BME280;50266;57.446;26.936;2023-02-11T05:01:52;98111.53;;;-1.44;100.0
64025;BME280;50266;57.446;26.936;2023-02-11T05:02:52;98110.92;;;-1.44;100.0
64025;BME280;50266;57.446;26.936;2023-02-11T05:03:52;98102.42;;;-1.42;100.0
64025;BME280;50266;57.446;26.936;2023-02-11T05:04:52;98089.77;;;-1.39;100.0
64025;BME280;50266;57.446;26.936;2023-02-11T05:05:52;98103.78;;;-1.33;100.0
64025;BME280;50266;57.446;26.936;2023-02-11T05:06:53;98096.85;;;-1.32;100.0
64025;BME280;50266;57.446;26.936;2023-02-11T05:07:53;98092.91;;;-1.3;100.0
64025;BME280;50266;57.446;26.936;2023-02-11T05:08:53;98101.42;;;-1.27;100.0
64025;BME280;50266;57.446;26.936;2023-02-11T05:09:53;98091.81;;;-1.29;100.0
64025;BME280;50266;57.446;26.936;2023-02-11T05:10:53;98077.77;;;-1.29;100.0
64025;BME280;50266;57.446;26.936;2023-02-11T05:11:53;98085.59;;;-1.27;100.0
64025;BME280;50266;57.446;26.936;2023-02-11T05:12:53;98080.19;;;-1.26;100.0
64025;BME280;50266;57.446;26.936;2023-02-11T05:13:53;98077.67;;;-1.27;100.0
64025;BME280;50266;57.446;26.936;2023-02-11T05:14:53;98075.33;;;-1.24;100.0
64025;BME280;50266;57.446;26.936;2023-02-11T05:15:53;98069.61;;;-1.18;100.0
64025;BME280;50266;57.446;26.936;2023-02-11T05:16:53;98070.88;;;-1.16;100.0
64025;BME280;50266;57.446;26.936;2023-02-11T05:17:53;98066.09;;;-1.15;100.0
64025;BME280;50266;57.446;26.936;2023-02-11T05:18:53;98059.19;;;-1.16;100.0
64025;BME280;50266;57.446;26.936;2023-02-11T05:19:53;98060.45;;;-1.16;100.0
64025;BME280;50266;57.446;26.936;2023-02-11T05:20:53;98053.88;;;-1.12;100.0
64025;BME280;50266;57.446;26.936;2023-02-11T05:21:53;98048.7;;;-1.11;100.0
64025;BME280;50266;57.446;26.936;2023-02-11T05:22:53;98047.91;;;-1.12;100.0
64025;BME280;50266;57.446;26.936;2023-02-11T05:23:53;98046.23;;;-1.08;100.0
64025;BME280;50266;57.446;26.936;2023-02-11T05:24:53;98038.62;;;-1.09;100.0
64025;BME280;50266;57.446;26.936;2023-02-11T05:25:53;98037.66;;;-1.06;100.0
64025;BME280;50266;57.446;26.936;2023-02-11T05:26:53;98041.86;;;-1.05;100.0
64025;BME280;50266;57.446;26.936;2023-02-11T05:27:53;98032.21;;;-1.05;100.0
64025;BME280;50266;57.446;26.936;2023-02-11T05:28:53;98033.71;;;-1.05;100.0
64025;BME280;50266;57.446;26.936;2023-02-11T05:29:53;98038.83;;;-0.99;100.0
64025;BME280;50266;57.446;26.936;2023-02-11T05:30:53;98033.06;;;-0.95;100.0
64025;BME280;50266;57.446;26.936;2023-02-11T05:31:53;98036.12;;;-0.96;100.0
64025;BME280;50266;57.446;26.936;2023-02-11T05:32:53;98031.76;;;-0.94;100.0
64025;BME280;50266;57.446;26.936;2023-02-11T05:33:53;98031.7;;;-0.9;100.0
64025;BME280;50266;57.446;26.936;2023-02-11T05:34:53;98025.38;;;-0.87;100.0
64025;BME280;50266;57.446;26.936;2023-02-11T05:36:00;98016.86;;;-0.89;100.0
64025;BME280;50266;57.446;26.936;2023-02-11T05:36:57;98026.19;;;-0.85;100.0
64025;BME280;50266;57.446;26.936;2023-02-11T05:37:57;98015.3;;;-0.85;100.0
64025;BME280;50266;57.446;26.936;2023-02-11T05:38:57;98015.36;;;-0.87;100.0
64025;BME280;50266;57.446;26.936;2023-02-11T05:39:57;98013.98;;;-0.77;100.0
64025;BME280;50266;57.446;26.936;2023-02-11T05:40:57;98018.91;;;-0.75;100.0
64025;BME280;50266;57.446;26.936;2023-02-11T05:41:57;98016.98;;;-0.74;100.0